Time;durP1;ratioP1;P1;durP2;ratioP2;P2;SDS_P1;SDS_P2;PMS_P1;PMS_P2;Temp;Humidity;BMP_temperature;BMP_pressure;BME280_temperature;BME280_humidity;BME280_pressure;Samples;Min_cycle;Max_cycle;Signal;HPM_P1;HPM_P2
2023/12/15 00:00:27;;;;;;;80.90;31.10;;;;;;;2.53;84.36;99301.07;108957;1251;109942;-71
2023/12/15 00:03:14;;;;;;;75.80;31.50;;;;;;;2.55;84.25;99305.92;108979;1250;94855;-71
2023/12/15 00:05:42;;;;;;;83.70;34.70;;;;;;;2.53;84.29;99310.88;108811;1251;107581;-71
2023/12/15 00:08:10;;;;;;;69.80;30.00;;;;;;;2.51;84.22;99313.56;109099;1250;94269;-71
2023/12/15 00:10:38;;;;;;;70.60;31.80;;;;;;;2.49;84.35;99319.79;108982;1251;94231;-71
2023/12/15 00:13:06;;;;;;;75.10;31.80;;;;;;;2.48;84.22;99320.51;109014;1251;109907;-69
2023/12/15 00:15:34;;;;;;;67.90;28.30;;;;;;;2.45;84.24;99318.50;108855;1250;94517;-69
2023/12/15 00:18:02;;;;;;;65.90;30.70;;;;;;;2.43;84.11;99325.61;108802;1251;106655;-69
2023/12/15 00:20:30;;;;;;;77.80;36.10;;;;;;;2.43;84.39;99331.17;109028;1250;94648;-71
2023/12/15 00:22:59;;;;;;;78.90;33.60;;;;;;;2.46;84.38;99337.18;108996;1249;94551;-70
2023/12/15 00:25:27;;;;;;;79.70;37.30;;;;;;;2.45;84.28;99341.95;108838;1249;109320;-70
2023/12/15 00:27:55;;;;;;;70.30;32.40;;;;;;;2.43;84.30;99346.08;108894;1251;94455;-69
2023/12/15 00:30:22;;;;;;;59.10;27.60;;;;;;;2.45;84.30;99350.39;109008;1251;107571;-69
2023/12/15 00:32:50;;;;;;;50.10;22.10;;;;;;;2.44;84.21;99354.96;108959;1250;94279;-70
2023/12/15 00:35:18;;;;;;;47.00;24.70;;;;;;;2.40;84.30;99358.58;109015;1250;94246;-70
2023/12/15 00:37:46;;;;;;;46.80;22.40;;;;;;;2.37;84.27;99365.33;108929;1251;109605;-69
2023/12/15 00:40:15;;;;;;;46.20;21.00;;;;;;;2.36;84.20;99365.52;109025;1250;95766;-69
2023/12/15 00:42:43;;;;;;;44.70;21.40;;;;;;;2.38;84.31;99372.66;109035;1250;107592;-71
2023/12/15 00:45:11;;;;;;;50.80;24.40;;;;;;;2.37;84.26;99372.19;108853;1250;94815;-70
2023/12/15 00:47:39;;;;;;;44.80;21.10;;;;;;;2.34;84.29;99374.19;109103;1250;94679;-69
2023/12/15 00:50:08;;;;;;;43.80;22.10;;;;;;;2.32;84.18;99376.73;108999;1251;108918;-69
2023/12/15 00:52:35;;;;;;;43.90;22.70;;;;;;;2.30;84.27;99385.16;109081;1250;95515;-70
2023/12/15 00:55:04;;;;;;;43.50;21.50;;;;;;;2.28;84.20;99388.41;108910;1251;107716;-69
2023/12/15 00:57:32;;;;;;;49.20;24.30;;;;;;;2.25;84.19;99392.70;109003;1251;94556;-69
2023/12/15 01:00:00;;;;;;;40.50;19.70;;;;;;;2.23;84.35;99396.62;109127;1251;94499;-69
2023/12/15 01:02:27;;;;;;;41.60;19.80;;;;;;;2.21;84.13;99394.39;108988;1251;110892;-69
2023/12/15 01:04:55;;;;;;;41.30;20.40;;;;;;;2.19;84.13;99403.02;109051;1251;95161;-71
2023/12/15 01:07:23;;;;;;;42.00;20.90;;;;;;;2.15;84.09;99406.84;109003;1249;107220;-69
2023/12/15 01:09:51;;;;;;;41.10;21.10;;;;;;;2.16;84.21;99410.50;108952;1250;94712;-69
2023/12/15 01:12:19;;;;;;;44.40;20.00;;;;;;;2.16;84.21;99415.73;109013;1249;94314;-69
2023/12/15 01:14:47;;;;;;;46.70;22.50;;;;;;;2.15;84.15;99423.64;108852;1250;109980;-69
2023/12/15 01:17:15;;;;;;;41.80;20.50;;;;;;;2.15;84.21;99422.08;109112;1250;95871;-70
2023/12/15 01:19:43;;;;;;;40.90;20.60;;;;;;;2.16;84.25;99428.88;108829;1250;107788;-70
2023/12/15 01:22:10;;;;;;;47.30;22.60;;;;;;;2.15;84.14;99431.16;108902;1250;94219;-70
2023/12/15 01:24:38;;;;;;;40.40;20.00;;;;;;;2.15;84.21;99434.15;108948;1251;94272;-69
2023/12/15 01:27:06;;;;;;;49.30;20.90;;;;;;;2.12;84.23;99438.25;108868;1251;109962;-69
2023/12/15 01:29:34;;;;;;;41.50;19.40;;;;;;;2.11;84.17;99442.30;109019;1250;95516;-70
2023/12/15 01:32:02;;;;;;;40.80;20.20;;;;;;;2.09;84.11;99446.55;108841;1251;106335;-69
2023/12/15 01:34:30;;;;;;;38.00;18.90;;;;;;;2.07;84.18;99450.66;108830;1251;94407;-69
2023/12/15 01:36:58;;;;;;;42.20;19.40;;;;;;;2.06;84.10;99452.63;108876;1250;94555;-69
2023/12/15 01:39:26;;;;;;;41.20;20.30;;;;;;;2.04;84.19;99454.80;109000;1251;110179;-70
2023/12/15 01:41:54;;;;;;;39.10;18.90;;;;;;;2.05;84.32;99456.83;108987;1249;95438;-69
2023/12/15 01:44:21;;;;;;;39.10;19.10;;;;;;;2.04;84.24;99457.21;108979;1251;107610;-69
2023/12/15 01:46:49;;;;;;;39.80;19.10;;;;;;;2.04;84.22;99456.89;108975;1250;94207;-69
2023/12/15 01:49:17;;;;;;;38.40;19.30;;;;;;;2.01;84.10;99454.35;108974;1251;94232;-70
2023/12/15 01:51:45;;;;;;;38.20;19.20;;;;;;;2.00;84.23;99458.75;109041;1250;109887;-69
2023/12/15 01:54:13;;;;;;;38.30;18.50;;;;;;;2.00;83.98;99464.70;109057;1249;95242;-69
2023/12/15 01:56:41;;;;;;;37.70;19.40;;;;;;;2.00;84.07;99469.97;108939;1250;107692;-70
2023/12/15 01:59:10;;;;;;;39.90;21.00;;;;;;;2.00;84.27;99472.92;108989;1251;94387;-70
2023/12/15 02:01:38;;;;;;;38.40;18.50;;;;;;;2.02;84.23;99477.95;108892;1251;94576;-69
2023/12/15 02:04:06;;;;;;;37.00;19.90;;;;;;;2.02;84.21;99481.61;108961;1250;109499;-70
2023/12/15 02:06:34;;;;;;;40.10;20.20;;;;;;;2.03;84.27;99480.70;109088;1250;95237;-70
2023/12/15 02:09:03;;;;;;;41.70;21.90;;;;;;;2.03;84.24;99481.77;108964;1249;107666;-70
2023/12/15 02:11:30;;;;;;;40.50;20.30;;;;;;;2.05;84.35;99486.56;108886;1250;94657;-70
2023/12/15 02:13:58;;;;;;;40.30;21.10;;;;;;;2.07;84.29;99487.57;109021;1249;94574;-70
2023/12/15 02:16:26;;;;;;;43.40;22.70;;;;;;;2.06;84.22;99491.61;109040;1251;109893;-69
2023/12/15 02:18:54;;;;;;;39.10;19.70;;;;;;;2.06;84.32;99492.14;108933;1250;95525;-70
2023/12/15 02:21:21;;;;;;;40.00;21.10;;;;;;;2.06;84.24;99495.48;108983;1251;106798;-70
2023/12/15 02:23:49;;;;;;;43.70;21.20;;;;;;;2.07;84.28;99496.13;109005;1249;94210;-70
2023/12/15 02:26:17;;;;;;;38.00;18.90;;;;;;;2.08;84.14;99502.58;109045;1249;94257;-69
2023/12/15 02:28:45;;;;;;;35.70;19.10;;;;;;;2.09;84.32;99503.61;109132;1249;109880;-70
2023/12/15 02:31:13;;;;;;;34.90;19.20;;;;;;;2.08;84.15;99509.59;109034;1250;95105;-70
2023/12/15 02:33:40;;;;;;;40.80;21.10;;;;;;;2.07;84.19;99511.02;109126;1249;107625;-69
2023/12/15 02:36:08;;;;;;;37.60;19.40;;;;;;;2.06;84.26;99514.54;108989;1249;94529;-70
2023/12/15 02:38:36;;;;;;;36.80;19.40;;;;;;;2.05;84.36;99521.23;109110;1250;94264;-69
2023/12/15 02:41:04;;;;;;;34.20;17.80;;;;;;;2.03;84.33;99524.08;108973;1250;109799;-69
2023/12/15 02:43:32;;;;;;;33.70;16.50;;;;;;;2.00;84.18;99527.69;108925;1250;95540;-70
2023/12/15 02:45:59;;;;;;;35.70;16.90;;;;;;;1.99;84.41;99527.55;108934;1250;107250;-69
2023/12/15 02:48:27;;;;;;;28.40;15.40;;;;;;;1.99;84.24;99533.66;108985;1249;95536;-69
2023/12/15 02:50:55;;;;;;;32.10;16.10;;;;;;;1.99;84.30;99536.46;109010;1250;94626;-69
2023/12/15 02:53:23;;;;;;;33.00;15.70;;;;;;;2.00;84.37;99535.20;108875;1251;109913;-69
2023/12/15 02:55:51;;;;;;;30.80;16.20;;;;;;;1.99;84.26;99541.88;109015;1250;95834;-70
2023/12/15 02:58:18;;;;;;;32.70;17.10;;;;;;;1.98;84.29;99542.77;108963;1250;107129;-70
2023/12/15 03:00:46;;;;;;;32.60;17.20;;;;;;;1.99;84.29;99548.86;108915;1250;94592;-70
2023/12/15 03:03:14;;;;;;;31.70;17.30;;;;;;;2.00;84.26;99546.57;108987;1250;94320;-70
2023/12/15 03:05:42;;;;;;;31.20;16.60;;;;;;;2.01;84.31;99547.41;109019;1249;109573;-70
2023/12/15 03:08:10;;;;;;;32.10;15.80;;;;;;;1.99;84.31;99553.27;108872;1251;95554;-70
2023/12/15 03:10:37;;;;;;;35.00;16.70;;;;;;;1.98;84.38;99553.11;108970;1250;107726;-70
2023/12/15 03:13:05;;;;;;;36.90;17.50;;;;;;;1.97;84.34;99556.27;109048;1250;94241;-70
2023/12/15 03:15:33;;;;;;;34.90;17.60;;;;;;;1.96;84.26;99561.92;108933;1251;94248;-70
2023/12/15 03:18:01;;;;;;;33.10;16.00;;;;;;;1.96;84.34;99563.33;108948;1249;110296;-69
2023/12/15 03:20:29;;;;;;;34.10;15.80;;;;;;;1.93;84.22;99562.33;108995;1250;95486;-69
2023/12/15 03:22:59;;;;;;;33.10;17.00;;;;;;;1.92;84.27;99565.15;109004;1250;107880;-70
2023/12/15 03:25:27;;;;;;;35.60;18.50;;;;;;;1.91;84.42;99568.15;108966;1250;94245;-70
2023/12/15 03:27:54;;;;;;;33.30;17.90;;;;;;;1.92;84.36;99570.06;109051;1250;94303;-69
2023/12/15 03:30:22;;;;;;;32.90;16.40;;;;;;;1.91;84.32;99569.91;109063;1249;109843;-70
2023/12/15 03:32:50;;;;;;;31.40;15.30;;;;;;;1.91;84.33;99577.27;108927;1250;95428;-69
2023/12/15 03:35:18;;;;;;;32.90;15.80;;;;;;;1.88;84.26;99576.82;108983;1250;108464;-70
2023/12/15 03:37:46;;;;;;;29.70;14.50;;;;;;;1.86;84.23;99583.88;109000;1251;96347;-69
2023/12/15 03:40:14;;;;;;;30.90;15.70;;;;;;;1.85;84.31;99587.40;109033;1250;94642;-69
2023/12/15 03:42:42;;;;;;;31.90;14.90;;;;;;;1.84;84.36;99589.52;108900;1251;109714;-69
2023/12/15 03:45:09;;;;;;;33.10;15.60;;;;;;;1.82;84.34;99592.75;109027;1250;95527;-72
2023/12/15 03:47:37;;;;;;;29.80;13.30;;;;;;;1.80;84.29;99595.60;109014;1249;107641;-69
2023/12/15 03:50:06;;;;;;;29.30;14.70;;;;;;;1.78;84.25;99602.11;109037;1250;94570;-69
2023/12/15 03:52:34;;;;;;;30.80;14.00;;;;;;;1.77;84.36;99607.39;108893;1250;94166;-70
2023/12/15 03:55:02;;;;;;;31.70;15.80;;;;;;;1.75;84.41;99610.94;109138;1250;109960;-70
2023/12/15 03:57:30;;;;;;;29.50;14.30;;;;;;;1.74;84.23;99622.33;108959;1249;95437;-70
2023/12/15 03:59:57;;;;;;;28.00;13.80;;;;;;;1.71;84.34;99625.92;109043;1250;107596;-69
2023/12/15 04:02:25;;;;;;;32.30;14.60;;;;;;;1.69;84.38;99628.94;108969;1249;94592;-69
2023/12/15 04:04:53;;;;;;;30.90;13.90;;;;;;;1.69;84.32;99632.61;109073;1250;94521;-69
2023/12/15 04:07:21;;;;;;;30.90;14.00;;;;;;;1.68;84.31;99637.86;109025;1249;109870;-70
2023/12/15 04:09:49;;;;;;;30.50;13.40;;;;;;;1.69;84.24;99638.73;109032;1250;94619;-69
2023/12/15 04:12:16;;;;;;;31.40;15.70;;;;;;;1.68;84.34;99643.48;108953;1250;106302;-69
2023/12/15 04:14:44;;;;;;;29.60;13.50;;;;;;;1.68;84.43;99643.64;109028;1249;94689;-69
2023/12/15 04:17:12;;;;;;;28.20;13.90;;;;;;;1.68;84.24;99646.80;109036;1250;94382;-70
2023/12/15 04:19:40;;;;;;;32.20;13.90;;;;;;;1.64;84.24;99649.52;109089;1250;110355;-71
2023/12/15 04:22:25;;;;;;;28.20;13.40;;;;;;;1.60;84.29;99653.83;109070;1250;95885;-71
2023/12/15 04:24:53;;;;;;;32.00;15.80;;;;;;;1.58;84.20;99658.09;108810;1250;107277;-71
2023/12/15 04:27:21;;;;;;;30.00;14.40;;;;;;;1.58;84.38;99659.48;108989;1250;94626;-71
2023/12/15 04:29:49;;;;;;;30.80;14.50;;;;;;;1.55;84.24;99662.53;108970;1250;94310;-72
2023/12/15 04:32:16;;;;;;;32.80;14.90;;;;;;;1.53;84.52;99670.09;108967;1249;109410;-71
2023/12/15 04:34:44;;;;;;;30.00;14.50;;;;;;;1.52;84.54;99673.42;108940;1250;95466;-71
2023/12/15 04:37:12;;;;;;;28.00;13.00;;;;;;;1.50;84.33;99682.39;108875;1250;107652;-71
2023/12/15 04:39:40;;;;;;;26.00;12.70;;;;;;;1.50;84.52;99688.52;108979;1250;94665;-71
2023/12/15 04:42:08;;;;;;;31.30;14.30;;;;;;;1.49;84.38;99692.56;108853;1250;94254;-71
2023/12/15 04:44:36;;;;;;;30.20;14.20;;;;;;;1.48;84.45;99693.64;108850;1250;109496;-71
2023/12/15 04:47:04;;;;;;;31.30;15.00;;;;;;;1.48;84.47;99697.14;108959;1250;95275;-72
2023/12/15 04:49:32;;;;;;;31.30;14.90;;;;;;;1.49;84.37;99706.36;109053;1250;107640;-72
2023/12/15 04:52:00;;;;;;;30.70;14.80;;;;;;;1.48;84.43;99708.14;108950;1251;94613;-72
2023/12/15 04:54:28;;;;;;;30.00;14.40;;;;;;;1.46;84.38;99714.98;109090;1250;94312;-72
2023/12/15 04:56:56;;;;;;;28.40;12.80;;;;;;;1.47;84.41;99713.58;108965;1250;109133;-72
2023/12/15 04:59:24;;;;;;;28.40;13.00;;;;;;;1.46;84.40;99720.60;108968;1250;95170;-72
2023/12/15 05:01:53;;;;;;;26.70;12.20;;;;;;;1.45;84.45;99726.05;108980;1251;107353;-72
2023/12/15 05:04:21;;;;;;;26.40;12.30;;;;;;;1.41;84.30;99723.70;109019;1249;94517;-74
2023/12/15 05:06:49;;;;;;;29.00;13.50;;;;;;;1.40;84.52;99733.36;108949;1250;94275;-72
2023/12/15 05:09:17;;;;;;;27.20;13.30;;;;;;;1.40;84.52;99737.90;109025;1250;109690;-72
2023/12/15 05:11:45;;;;;;;28.50;13.90;;;;;;;1.39;84.34;99742.63;108897;1250;95444;-72
2023/12/15 05:14:13;;;;;;;28.50;12.40;;;;;;;1.38;84.46;99751.91;109009;1250;107404;-74
2023/12/15 05:16:40;;;;;;;32.40;14.70;;;;;;;1.37;84.50;99755.96;108900;1250;94644;-75
2023/12/15 05:19:08;;;;;;;27.50;12.40;;;;;;;1.35;84.42;99767.55;109048;1250;94567;-74
2023/12/15 05:21:36;;;;;;;29.40;12.80;;;;;;;1.32;84.37;99774.06;109032;1250;109610;-73
2023/12/15 05:24:04;;;;;;;33.70;16.00;;;;;;;1.28;84.49;99781.15;108932;1250;95501;-73
2023/12/15 05:26:32;;;;;;;31.20;14.60;;;;;;;1.27;84.46;99788.52;108898;1250;107859;-74
2023/12/15 05:29:00;;;;;;;28.40;13.80;;;;;;;1.28;84.63;99795.13;108958;1250;94319;-72
2023/12/15 05:31:27;;;;;;;31.20;14.20;;;;;;;1.27;84.63;99801.61;109012;1250;94239;-72
2023/12/15 05:33:55;;;;;;;29.00;13.80;;;;;;;1.26;84.50;99811.43;108989;1249;109853;-73
2023/12/15 05:36:23;;;;;;;26.10;12.70;;;;;;;1.23;84.67;99817.60;108905;1250;94742;-74
2023/12/15 05:38:53;;;;;;;29.40;15.00;;;;;;;1.23;84.41;99823.20;108996;1249;107673;-73
2023/12/15 05:41:22;;;;;;;37.00;16.00;;;;;;;1.25;84.39;99831.02;108966;1249;94641;-73
2023/12/15 05:43:50;;;;;;;27.00;13.20;;;;;;;1.25;84.39;99836.59;108929;1250;94232;-73
2023/12/15 05:46:19;;;;;;;29.80;13.80;;;;;;;1.26;84.52;99840.95;108988;1250;109792;-73
2023/12/15 05:48:47;;;;;;;24.30;12.70;;;;;;;1.26;84.33;99845.14;108976;1250;95534;-73
2023/12/15 05:51:15;;;;;;;28.60;13.50;;;;;;;1.25;84.34;99841.67;108912;1250;106834;-71
2023/12/15 05:53:43;;;;;;;27.00;12.80;;;;;;;1.23;84.38;99849.05;108984;1249;94200;-70
2023/12/15 05:56:24;;;;;;;28.40;13.20;;;;;;;1.22;84.42;99851.52;109042;1250;94631;-70
2023/12/15 05:58:52;;;;;;;25.70;11.60;;;;;;;1.24;84.30;99856.19;109102;1250;109877;-71
2023/12/15 06:01:20;;;;;;;27.30;12.90;;;;;;;1.21;84.30;99860.46;108844;1249;95425;-70
2023/12/15 06:03:48;;;;;;;25.70;12.30;;;;;;;1.19;84.37;99867.14;108970;1251;107641;-70
2023/12/15 06:06:16;;;;;;;25.60;12.10;;;;;;;1.18;84.20;99875.38;108777;1251;94368;-69
2023/12/15 06:08:44;;;;;;;23.60;10.90;;;;;;;1.17;84.40;99880.47;108954;1251;94294;-70
2023/12/15 06:11:12;;;;;;;24.10;12.50;;;;;;;1.18;84.20;99889.71;108797;1254;109986;-69
2023/12/15 06:13:41;;;;;;;22.40;10.80;;;;;;;1.18;84.40;99893.38;109071;1250;95554;-70
2023/12/15 06:16:20;;;;;;;25.40;11.90;;;;;;;1.17;84.14;99902.84;109062;1249;107630;-71
2023/12/15 06:18:48;;;;;;;25.50;13.20;;;;;;;1.19;84.34;99909.23;109104;1250;94261;-72
2023/12/15 06:21:23;;;;;;;34.10;16.50;;;;;;;1.20;84.36;99908.88;109023;1249;94226;-71
2023/12/15 06:23:51;;;;;;;25.40;12.10;;;;;;;1.21;84.45;99915.16;108802;1253;108455;-72
2023/12/15 06:26:25;;;;;;;26.80;13.50;;;;;;;1.22;84.44;99916.53;108764;1250;94566;-72
2023/12/15 06:28:53;;;;;;;23.10;11.50;;;;;;;1.20;84.35;99925.84;108993;1250;107703;-72
2023/12/15 06:31:25;;;;;;;25.60;13.40;;;;;;;1.14;83.99;99931.36;108936;1251;94537;-72
2023/12/15 06:33:53;;;;;;;23.40;10.80;;;;;;;1.06;84.14;99936.59;108998;1250;94275;-74
2023/12/15 06:36:22;;;;;;;25.80;11.60;;;;;;;1.00;84.21;99944.75;108996;1250;109412;-71
2023/12/15 06:38:52;;;;;;;23.80;11.00;;;;;;;0.97;84.02;99951.09;109031;1250;95610;-71
2023/12/15 06:41:20;;;;;;;40.60;16.70;;;;;;;0.94;84.24;99956.55;108971;1250;107828;-72
2023/12/15 06:43:48;;;;;;;41.60;19.50;;;;;;;0.93;84.21;99963.91;108958;1250;94314;-73
2023/12/15 06:46:16;;;;;;;29.30;12.50;;;;;;;0.94;84.05;99966.17;109057;1250;94261;-73
2023/12/15 06:48:44;;;;;;;26.30;12.80;;;;;;;0.91;84.23;99973.36;109025;1250;110116;-71
2023/12/15 06:51:12;;;;;;;66.60;24.10;;;;;;;0.87;84.29;99979.20;109043;1249;95676;-72
2023/12/15 06:53:40;;;;;;;35.60;15.00;;;;;;;0.86;84.26;99984.98;109058;1250;107624;-71
2023/12/15 06:56:08;;;;;;;30.30;13.00;;;;;;;0.85;84.11;99989.72;109038;1250;94265;-72
2023/12/15 06:58:36;;;;;;;26.00;13.30;;;;;;;0.82;84.24;99992.39;109017;1249;94298;-72
2023/12/15 07:01:04;;;;;;;35.20;17.80;;;;;;;0.82;84.37;99999.39;109049;1249;109067;-71
2023/12/15 07:03:33;;;;;;;53.90;19.30;;;;;;;0.79;84.10;100012.00;109068;1250;96026;-72
2023/12/15 07:06:01;;;;;;;29.10;15.60;;;;;;;0.77;84.28;100021.12;109017;1249;109211;-72
2023/12/15 07:08:29;;;;;;;28.40;16.20;;;;;;;0.73;84.02;100025.02;109007;1250;94290;-71
2023/12/15 07:10:57;;;;;;;29.70;14.80;;;;;;;0.73;83.96;100030.96;109056;1249;94192;-72
2023/12/15 07:13:25;;;;;;;26.60;12.40;;;;;;;0.69;84.07;100034.16;109069;1250;108892;-71
2023/12/15 07:15:53;;;;;;;49.00;18.70;;;;;;;0.68;84.16;100041.52;109072;1250;94577;-72
2023/12/15 07:18:21;;;;;;;28.00;12.70;;;;;;;0.66;84.31;100038.93;109003;1250;107288;-74
2023/12/15 07:20:49;;;;;;;26.90;13.60;;;;;;;0.62;84.03;100043.02;109058;1249;94186;-73
2023/12/15 07:23:17;;;;;;;26.70;14.40;;;;;;;0.58;84.13;100047.25;109018;1250;94443;-71
2023/12/15 07:25:44;;;;;;;28.20;12.70;;;;;;;0.58;84.07;100049.36;109094;1250;109372;-72
2023/12/15 07:28:12;;;;;;;25.60;12.10;;;;;;;0.58;84.03;100051.63;109054;1250;94823;-74
2023/12/15 07:30:40;;;;;;;26.90;13.50;;;;;;;0.60;83.98;100058.06;109035;1249;108815;-71
2023/12/15 07:33:08;;;;;;;25.00;12.90;;;;;;;0.58;84.11;100062.45;109072;1251;94550;-71
2023/12/15 07:35:36;;;;;;;24.40;12.70;;;;;;;0.55;83.95;100068.08;109047;1250;94243;-71
2023/12/15 07:38:04;;;;;;;28.10;12.70;;;;;;;0.53;83.98;100071.25;109090;1250;108145;-72
2023/12/15 07:40:32;;;;;;;42.50;17.70;;;;;;;0.50;83.89;100076.89;109030;1251;94535;-71
2023/12/15 07:43:00;;;;;;;36.00;15.00;;;;;;;0.51;83.90;100085.08;109052;1249;108814;-71
2023/12/15 07:45:27;;;;;;;36.80;14.30;;;;;;;0.53;84.02;100091.33;108934;1251;94558;-71
2023/12/15 07:47:56;;;;;;;34.00;14.90;;;;;;;0.56;83.96;100098.79;109110;1249;94488;-71
2023/12/15 07:50:24;;;;;;;41.80;17.90;;;;;;;0.58;84.10;100105.04;109153;1249;109934;-72
2023/12/15 07:52:56;;;;;;;32.40;14.40;;;;;;;0.58;83.91;100109.94;109081;1250;94492;-72
2023/12/15 07:55:23;;;;;;;29.90;13.40;;;;;;;0.58;83.89;100112.91;108982;1249;108792;-71
2023/12/15 07:57:51;;;;;;;33.50;17.70;;;;;;;0.58;83.94;100120.05;109059;1250;94274;-71
2023/12/15 08:00:19;;;;;;;36.40;16.00;;;;;;;0.55;83.49;100126.20;109100;1250;94243;-71
2023/12/15 08:02:47;;;;;;;36.20;14.50;;;;;;;0.53;83.78;100138.79;109049;1250;110892;-72
2023/12/15 08:05:17;;;;;;;37.50;14.70;;;;;;;0.53;83.56;100143.16;109090;1249;95540;-70
2023/12/15 08:07:46;;;;;;;56.70;24.30;;;;;;;0.53;83.89;100148.57;109050;1250;107146;-71
2023/12/15 08:10:14;;;;;;;40.90;18.30;;;;;;;0.56;83.81;100158.31;109032;1250;94254;-71
2023/12/15 08:12:41;;;;;;;29.80;12.90;;;;;;;0.60;83.73;100165.06;109094;1250;94331;-72
2023/12/15 08:15:09;;;;;;;28.40;12.70;;;;;;;0.61;83.88;100170.28;109040;1251;110235;-71
2023/12/15 08:17:37;;;;;;;30.50;13.50;;;;;;;0.62;83.82;100174.45;109085;1250;95450;-72
2023/12/15 08:20:07;;;;;;;28.60;12.70;;;;;;;0.63;83.82;100180.02;109062;1249;108121;-72
2023/12/15 08:22:35;;;;;;;33.50;14.60;;;;;;;0.62;83.69;100183.00;109055;1250;94247;-71
2023/12/15 08:25:03;;;;;;;23.60;10.40;;;;;;;0.65;83.92;100186.45;109048;1250;94230;-72
2023/12/15 08:27:31;;;;;;;26.60;11.20;;;;;;;0.66;83.72;100185.05;108982;1250;109828;-71
2023/12/15 08:29:59;;;;;;;25.80;12.00;;;;;;;0.66;83.75;100189.06;109103;1250;94298;-71
2023/12/15 08:32:27;;;;;;;36.50;14.40;;;;;;;0.64;83.71;100197.46;108973;1250;107821;-71
2023/12/15 08:34:55;;;;;;;26.80;10.40;;;;;;;0.68;83.97;100205.10;108980;1249;94209;-72
2023/12/15 08:37:22;;;;;;;27.20;11.00;;;;;;;0.69;83.75;100211.54;109116;1250;94668;-72
2023/12/15 08:39:50;;;;;;;21.80;10.20;;;;;;;0.70;83.87;100217.99;109106;1249;111448;-72
2023/12/15 08:42:18;;;;;;;28.60;11.80;;;;;;;0.68;83.69;100219.60;109045;1251;95123;-73
2023/12/15 08:44:46;;;;;;;25.70;10.40;;;;;;;0.70;83.33;100224.63;109027;1250;107877;-72
2023/12/15 08:47:13;;;;;;;26.40;10.80;;;;;;;0.73;83.68;100228.06;109040;1249;94564;-72
2023/12/15 08:49:41;;;;;;;24.10;10.30;;;;;;;0.75;83.95;100233.81;109098;1250;95471;-72
2023/12/15 08:52:09;;;;;;;23.80;10.50;;;;;;;0.78;83.73;100242.85;109128;1249;109245;-72
2023/12/15 08:54:37;;;;;;;25.00;10.90;;;;;;;0.80;83.80;100247.73;109041;1250;94903;-71
2023/12/15 08:57:04;;;;;;;23.90;10.10;;;;;;;0.82;83.97;100255.73;109133;1250;107218;-72
2023/12/15 08:59:33;;;;;;;22.20;9.80;;;;;;;0.80;83.69;100257.67;108890;1250;94305;-70
2023/12/15 09:02:01;;;;;;;23.00;9.70;;;;;;;0.79;83.57;100259.79;109119;1249;94168;-72
2023/12/15 09:04:28;;;;;;;22.20;9.80;;;;;;;0.80;83.83;100261.54;109095;1249;109529;-71
2023/12/15 09:06:56;;;;;;;25.20;10.60;;;;;;;0.82;83.94;100260.61;109086;1249;96908;-71
2023/12/15 09:09:24;;;;;;;26.10;10.50;;;;;;;0.88;83.70;100262.98;109063;1250;107168;-71
2023/12/15 09:11:52;;;;;;;21.00;8.60;;;;;;;0.93;83.90;100265.36;109046;1251;94235;-72
2023/12/15 09:14:21;;;;;;;23.30;9.30;;;;;;;0.98;83.71;100271.94;109105;1251;94208;-73
2023/12/15 09:16:49;;;;;;;20.50;8.30;;;;;;;0.97;83.80;100279.63;109109;1250;109964;-71
2023/12/15 09:19:17;;;;;;;24.20;11.10;;;;;;;0.96;83.66;100284.52;109070;1251;95669;-71
2023/12/15 09:21:45;;;;;;;25.40;12.10;;;;;;;0.99;83.55;100284.85;109022;1249;107440;-73
2023/12/15 09:24:17;;;;;;;25.10;10.60;;;;;;;1.04;83.84;100286.67;109050;1250;94692;-71
2023/12/15 09:26:45;;;;;;;24.50;13.50;;;;;;;1.08;83.87;100286.63;109030;1250;94216;-75
2023/12/15 09:29:14;;;;;;;21.80;10.20;;;;;;;1.07;83.60;100286.13;109038;1249;108867;-74
2023/12/15 09:31:42;;;;;;;19.70;9.10;;;;;;;1.06;83.60;100284.39;109066;1251;95714;-74
2023/12/15 09:34:10;;;;;;;22.60;10.20;;;;;;;1.08;83.72;100286.27;109003;1250;106756;-73
2023/12/15 09:36:40;;;;;;;22.50;10.90;;;;;;;1.11;83.75;100286.94;109004;1251;94489;-71
2023/12/15 09:39:08;;;;;;;23.90;11.40;;;;;;;1.09;83.45;100282.60;108985;1250;94299;-72
2023/12/15 09:41:36;;;;;;;20.40;8.80;;;;;;;1.09;83.73;100276.83;109069;1250;109874;-71
2023/12/15 09:44:04;;;;;;;24.00;9.50;;;;;;;1.10;83.53;100274.02;109055;1250;94369;-73
2023/12/15 09:46:34;;;;;;;27.40;12.10;;;;;;;1.09;83.48;100268.46;109065;1249;107256;-71
2023/12/15 09:49:02;;;;;;;21.10;10.10;;;;;;;1.12;83.62;100268.05;109031;1249;94506;-72
2023/12/15 09:51:32;;;;;;;21.80;9.90;;;;;;;1.16;83.57;100268.36;108998;1253;94383;-73
2023/12/15 09:54:00;;;;;;;24.40;11.30;;;;;;;1.16;83.46;100269.91;109077;1250;109366;-72
2023/12/15 09:56:28;;;;;;;25.90;12.10;;;;;;;1.16;83.17;100274.82;109047;1251;95466;-70
2023/12/15 09:58:56;;;;;;;25.60;12.20;;;;;;;1.16;83.24;100276.91;108866;1249;107286;-72
2023/12/15 10:01:24;;;;;;;20.40;8.90;;;;;;;1.19;83.42;100278.62;109082;1250;94618;-73
2023/12/15 10:03:53;;;;;;;20.60;8.10;;;;;;;1.23;83.25;100283.27;108954;1250;94332;-71
2023/12/15 10:06:21;;;;;;;23.60;11.60;;;;;;;1.26;83.30;100283.23;109064;1250;110652;-73
2023/12/15 10:08:49;;;;;;;19.80;8.10;;;;;;;1.30;83.36;100286.46;109102;1250;95566;-71
2023/12/15 10:11:32;;;;;;;19.00;8.50;;;;;;;1.36;83.29;100289.73;109027;1249;107607;-71
2023/12/15 10:14:04;;;;;;;20.20;7.90;;;;;;;1.36;82.99;100294.10;109112;1250;94195;-72
2023/12/15 10:16:34;;;;;;;19.70;8.30;;;;;;;1.36;83.05;100298.46;108851;1251;94610;-71
2023/12/15 10:19:07;;;;;;;21.40;9.70;;;;;;;1.37;83.14;100297.06;108999;1251;109816;-71
2023/12/15 10:21:35;;;;;;;18.50;8.70;;;;;;;1.43;83.18;100300.98;109078;1250;95568;-70
2023/12/15 10:24:20;;;;;;;18.50;8.50;;;;;;;1.47;83.18;100308.27;109044;1251;107097;-71
2023/12/15 10:26:49;;;;;;;20.20;9.10;;;;;;;1.41;82.71;100310.10;108995;1250;94216;-71
2023/12/15 10:29:21;;;;;;;20.10;9.70;;;;;;;1.40;82.81;100319.56;109141;1249;94235;-72
2023/12/15 10:31:51;;;;;;;22.50;9.70;;;;;;;1.39;82.85;100323.77;108850;1250;109895;-71
2023/12/15 10:34:25;;;;;;;23.20;9.40;;;;;;;1.40;82.75;100333.02;109067;1250;95525;-72
2023/12/15 10:36:54;;;;;;;25.90;11.40;;;;;;;1.41;82.73;100336.33;108869;1251;107782;-71
2023/12/15 10:39:24;;;;;;;26.30;12.90;;;;;;;1.41;82.71;100336.66;108996;1251;94485;-71
2023/12/15 10:41:53;;;;;;;22.70;10.60;;;;;;;1.41;82.75;100336.33;109146;1249;94217;-72
2023/12/15 10:44:24;;;;;;;22.90;10.70;;;;;;;1.43;82.57;100335.76;109074;1250;109456;-74
2023/12/15 10:46:53;;;;;;;21.60;10.00;;;;;;;1.44;82.54;100334.86;108892;1250;94774;-71
2023/12/15 10:49:21;;;;;;;24.50;12.30;;;;;;;1.42;82.55;100330.70;109024;1251;107791;-71
2023/12/15 10:51:50;;;;;;;22.60;12.20;;;;;;;1.43;82.53;100336.98;109025;1250;94563;-71
2023/12/15 10:54:18;;;;;;;24.10;12.00;;;;;;;1.45;82.65;100339.56;109140;1250;94287;-72
2023/12/15 10:56:51;;;;;;;30.30;14.60;;;;;;;1.44;82.37;100339.59;109023;1253;110043;-72
2023/12/15 10:59:19;;;;;;;27.40;11.70;;;;;;;1.44;82.40;100342.73;108994;1250;95479;-71
2023/12/15 11:03:53;;;;;;;38.70;16.00;;;;;;;1.43;82.07;100345.05;102648;1288;638532;-75
2023/12/15 11:06:29;;;;;;;30.70;14.40;;;;;;;1.35;82.11;100340.42;104712;1263;94573;-72
2023/12/15 11:09:07;;;;;;;56.40;24.00;;;;;;;1.35;82.16;100347.95;104964;1266;94577;-72
2023/12/15 11:11:33;;;;;;;71.90;40.90;;;;;;;1.35;82.23;100346.20;104849;1266;107789;-73
2023/12/15 11:14:01;;;;;;;62.30;30.30;;;;;;;1.39;82.42;100354.01;104813;1266;94442;-76
2023/12/15 11:16:29;;;;;;;50.00;24.80;;;;;;;1.40;82.22;100356.61;104706;1263;133838;-74
2023/12/15 11:18:57;;;;;;;29.70;14.20;;;;;;;1.41;82.20;100351.70;104902;1260;95164;-74